createdAt,value
2023-04-24T00:02:14.151Z,19.38
2023-04-24T00:04:46.704Z,16.02
2023-04-24T00:07:17.767Z,18.05
2023-04-24T00:09:47.460Z,19.45
2023-04-24T00:12:17.016Z,20.52
2023-04-24T00:14:46.548Z,18.38
2023-04-24T00:17:16.161Z,16.48
2023-04-24T00:19:48.296Z,21.38
2023-04-24T00:22:18.444Z,18.08
2023-04-24T00:24:47.968Z,19.70
2023-04-24T00:27:17.522Z,19.67
2023-04-24T00:29:48.239Z,16.30
2023-04-24T00:32:19.159Z,20.95
2023-04-24T00:34:51.473Z,20.35
2023-04-24T00:37:21.037Z,18.63
2023-04-24T00:39:50.541Z,17.92
2023-04-24T00:42:20.144Z,17.85
2023-04-24T00:44:49.835Z,21.63
2023-04-24T00:47:19.696Z,18.88
2023-04-24T00:49:51.792Z,20.33
2023-04-24T00:52:21.843Z,12.45
2023-04-24T00:54:51.434Z,19.35
2023-04-24T00:57:21.734Z,20.00
2023-04-24T00:59:51.447Z,21.23
2023-04-24T01:02:21.555Z,19.35
2023-04-24T01:04:54.734Z,22.35
2023-04-24T01:07:25.246Z,7.63
2023-04-24T01:09:55.049Z,23.10
2023-04-24T01:12:24.649Z,16.17
2023-04-24T01:14:54.729Z,12.85
2023-04-24T01:17:24.302Z,18.15
2023-04-24T01:19:57.885Z,15.30
2023-04-24T01:22:30.366Z,21.55
2023-04-24T01:25:00.459Z,19.17
2023-04-24T01:27:30.237Z,19.50
2023-04-24T01:30:00.475Z,20.45
2023-04-24T01:32:30.763Z,19.55
2023-04-24T01:35:00.790Z,16.23
2023-04-24T01:37:33.396Z,16.10
2023-04-24T01:40:04.624Z,21.63
2023-04-24T01:42:34.342Z,24.65
2023-04-24T01:45:06.311Z,11.63
2023-04-24T01:47:36.124Z,22.63
2023-04-24T01:50:05.978Z,22.25
2023-04-24T01:52:38.216Z,20.88
2023-04-24T01:55:09.326Z,20.30
2023-04-24T01:57:39.537Z,19.45
2023-04-24T02:00:13.247Z,23.67
2023-04-24T02:02:46.475Z,14.00
2023-04-24T02:05:17.649Z,23.75
2023-04-24T02:07:49.809Z,23.48
2023-04-24T02:10:19.427Z,20.88
2023-04-24T02:12:49.242Z,19.65
2023-04-24T02:15:19.076Z,18.17
2023-04-24T02:17:48.730Z,18.98
2023-04-24T02:20:18.799Z,20.35
2023-04-24T02:22:50.899Z,10.07
2023-04-24T02:25:20.424Z,19.40
2023-04-24T02:27:49.955Z,20.95
2023-04-24T02:30:19.478Z,18.88
2023-04-24T02:32:49.012Z,23.42
2023-04-24T02:35:18.803Z,20.85
2023-04-24T02:37:51.017Z,17.45
2023-04-24T02:40:20.741Z,15.35
2023-04-24T02:42:50.539Z,15.07
2023-04-24T02:45:20.290Z,18.85
2023-04-24T02:47:50.101Z,18.63
2023-04-24T02:50:19.969Z,22.08
2023-04-24T02:52:52.081Z,18.50
2023-04-24T02:55:21.767Z,15.25
2023-04-24T02:57:51.288Z,19.63
2023-04-24T03:00:21.134Z,13.93
2023-04-24T03:02:51.078Z,20.13
2023-04-24T03:05:20.782Z,15.00
2023-04-24T03:07:53.774Z,15.10
2023-04-24T03:10:23.881Z,21.45
2023-04-24T03:12:53.454Z,20.48
2023-04-24T03:15:23.193Z,19.42
2023-04-24T03:17:54.747Z,21.90
2023-04-24T03:20:26.942Z,21.27
2023-04-24T03:22:59.066Z,22.85
2023-04-24T03:25:28.775Z,21.77
2023-04-24T03:27:58.570Z,20.77
2023-04-24T03:30:28.113Z,23.33
2023-04-24T03:32:57.882Z,23.05
2023-04-24T03:35:27.697Z,25.02
2023-04-24T03:37:59.808Z,19.50
2023-04-24T03:40:30.759Z,22.83
2023-04-24T03:43:00.376Z,20.65
2023-04-24T03:45:29.900Z,21.02
2023-04-24T03:47:59.552Z,22.08
2023-04-24T03:50:30.334Z,13.10
2023-04-24T03:53:02.423Z,18.75
2023-04-24T03:55:31.965Z,10.20
2023-04-24T03:58:01.959Z,21.25
2023-04-24T04:00:34.464Z,19.50
2023-04-24T04:03:04.100Z,21.27
2023-04-24T04:05:33.887Z,21.98
2023-04-24T04:08:06.023Z,18.00
2023-04-24T04:10:35.778Z,19.83
2023-04-24T04:13:05.339Z,21.75
2023-04-24T04:15:34.865Z,21.40
2023-04-24T04:18:04.539Z,21.98
2023-04-24T04:20:34.149Z,23.83
2023-04-24T04:23:06.290Z,22.17
2023-04-24T04:25:35.836Z,22.33
2023-04-24T04:28:05.382Z,19.70
2023-04-24T04:30:34.917Z,22.63
2023-04-24T04:33:04.513Z,20.77
2023-04-24T04:35:34.094Z,20.42
2023-04-24T04:38:09.501Z,16.77
2023-04-24T04:40:39.120Z,17.65
2023-04-24T04:43:09.280Z,17.17
2023-04-24T04:45:40.027Z,22.70
2023-04-24T04:48:10.196Z,18.75
2023-04-24T04:50:39.985Z,17.02
2023-04-24T04:53:12.161Z,16.75
2023-04-24T04:55:41.850Z,15.30
2023-04-24T04:58:11.406Z,14.45
2023-04-24T05:00:40.966Z,16.75
2023-04-24T05:03:20.946Z,16.48
2023-04-24T05:05:51.350Z,15.48
2023-04-24T05:08:27.663Z,11.77
2023-04-24T05:10:58.563Z,15.68
2023-04-24T05:13:38.241Z,8.57
2023-04-24T05:16:09.184Z,11.02
2023-04-24T05:18:38.683Z,16.55
2023-04-24T05:21:08.319Z,13.98
2023-04-24T05:23:40.824Z,8.93
2023-04-24T05:26:10.374Z,9.75
2023-04-24T05:28:40.315Z,14.52
2023-04-24T05:31:09.969Z,12.98
2023-04-24T05:33:39.521Z,11.18
2023-04-24T05:36:10.448Z,16.08
2023-04-24T05:38:42.605Z,11.85
2023-04-24T05:41:12.180Z,16.52
2023-04-24T05:43:41.737Z,11.23
2023-04-24T05:46:11.289Z,11.02
2023-04-24T05:48:40.832Z,13.32
2023-04-24T05:51:10.354Z,11.82
2023-04-24T05:53:42.564Z,11.88
2023-04-24T05:56:12.216Z,8.20
2023-04-24T05:58:41.908Z,11.40
2023-04-24T06:01:11.450Z,13.35
2023-04-24T06:03:41.775Z,15.35
2023-04-24T06:06:11.439Z,7.07
2023-04-24T06:08:43.893Z,11.38
2023-04-24T06:11:13.578Z,10.90
2023-04-24T06:13:43.118Z,9.05
2023-04-24T06:16:12.886Z,11.00
2023-04-24T06:18:42.470Z,10.23
2023-04-24T06:21:11.994Z,10.07
2023-04-24T06:23:44.088Z,12.55
2023-04-24T06:26:13.653Z,9.80
2023-04-24T06:28:43.180Z,11.57
2023-04-24T06:31:12.713Z,10.63
2023-04-24T06:33:42.293Z,11.98
2023-04-24T06:36:11.951Z,11.77
2023-04-24T06:38:44.114Z,11.98
2023-04-24T06:41:14.176Z,10.73
2023-04-24T06:43:43.736Z,9.77
2023-04-24T06:46:14.084Z,10.35
2023-04-24T06:48:43.697Z,10.43
2023-04-24T06:51:13.280Z,9.23
2023-04-24T06:53:46.412Z,10.75
2023-04-24T06:56:17.128Z,12.15
2023-04-24T06:58:47.525Z,10.27
2023-04-24T07:01:17.210Z,12.80
2023-04-24T07:03:46.893Z,11.82
2023-04-24T07:06:19.806Z,11.13
2023-04-24T07:08:52.225Z,10.82
2023-04-24T07:11:22.067Z,15.27
2023-04-24T07:13:51.604Z,11.80
2023-04-24T07:16:21.232Z,14.73
2023-04-24T07:18:50.739Z,11.45
2023-04-24T07:21:20.302Z,13.20
2023-04-24T07:23:52.415Z,10.27
2023-04-24T07:26:22.335Z,10.10
2023-04-24T07:28:51.864Z,11.23
2023-04-24T07:31:22.213Z,12.07
2023-04-24T07:33:52.134Z,10.95
2023-04-24T07:36:21.889Z,9.98
2023-04-24T07:38:54.133Z,11.13
2023-04-24T07:41:25.553Z,12.75
2023-04-24T07:43:55.765Z,10.02
2023-04-24T07:46:25.871Z,10.80
2023-04-24T07:49:05.660Z,10.23
2023-04-24T07:51:39.507Z,9.52
2023-04-24T07:54:11.896Z,10.82
2023-04-24T07:56:43.170Z,8.52
2023-04-24T07:59:13.587Z,7.82
2023-04-24T08:01:43.126Z,8.60
2023-04-24T08:04:12.871Z,10.15
2023-04-24T08:06:42.539Z,8.57
2023-04-24T08:09:14.698Z,8.32
2023-04-24T08:11:44.294Z,10.32
2023-04-24T08:14:14.481Z,10.20
2023-04-24T08:16:44.471Z,10.70
2023-04-24T08:19:14.100Z,9.80
2023-04-24T08:21:43.630Z,11.82
2023-04-24T08:24:15.771Z,8.63
2023-04-24T08:26:45.320Z,8.70
2023-04-24T08:29:14.803Z,8.55
2023-04-24T08:31:44.409Z,10.48
2023-04-24T08:34:14.232Z,9.48
2023-04-24T08:36:47.525Z,9.13
2023-04-24T08:39:21.687Z,10.55
2023-04-24T08:41:52.218Z,10.00
2023-04-24T08:44:23.232Z,8.43
2023-04-24T08:46:53.083Z,11.93
2023-04-24T08:49:23.362Z,10.80
2023-04-24T08:51:54.388Z,10.07
2023-04-24T08:54:27.077Z,11.80
2023-04-24T08:57:02.160Z,9.20
2023-04-24T08:59:32.110Z,9.55
2023-04-24T09:02:02.004Z,10.70
2023-04-24T09:04:33.116Z,7.88
2023-04-24T09:07:03.844Z,9.52
2023-04-24T09:09:36.824Z,8.73
2023-04-24T09:12:07.134Z,8.68
2023-04-24T09:14:38.213Z,8.75
2023-04-24T09:17:07.963Z,7.72
2023-04-24T09:19:37.582Z,7.60
2023-04-24T09:22:08.884Z,7.70
2023-04-24T09:24:42.384Z,7.60
2023-04-24T09:27:16.044Z,9.23
2023-04-24T09:29:57.588Z,7.28
2023-04-24T09:32:29.943Z,6.13
2023-04-24T09:35:10.872Z,7.45
2023-04-24T09:37:42.615Z,7.35
2023-04-24T09:40:16.949Z,7.55
2023-04-24T09:42:49.297Z,7.85
2023-04-24T09:45:19.027Z,7.47
2023-04-24T09:47:48.612Z,8.15
2023-04-24T09:50:20.722Z,8.23
2023-04-24T09:53:01.190Z,8.27
2023-04-24T09:55:33.698Z,8.43
2023-04-24T09:58:06.384Z,9.20
2023-04-24T10:00:36.682Z,9.13
2023-04-24T10:03:07.830Z,8.63
2023-04-24T10:05:39.908Z,10.02
2023-04-24T10:08:11.302Z,10.25
2023-04-24T10:10:45.283Z,9.85
2023-04-24T10:13:16.888Z,8.20
2023-04-24T10:15:47.802Z,9.82
2023-04-24T10:18:17.406Z,10.20
2023-04-24T10:20:47.025Z,9.40
2023-04-24T10:23:16.600Z,8.77
2023-04-24T10:57:34.479Z,7.55
2023-04-24T11:00:20.312Z,8.00
2023-04-24T11:05:53.443Z,7.53
2023-04-24T11:08:28.518Z,8.40
2023-04-24T11:11:03.692Z,12.27
2023-04-24T11:14:15.065Z,7.20
2023-04-24T11:16:57.356Z,7.82
2023-04-24T11:19:29.788Z,8.40
2023-04-24T11:22:02.974Z,8.23
2023-04-24T11:24:40.956Z,9.93
2023-04-24T11:27:16.956Z,9.90
2023-04-24T11:29:49.428Z,9.00
2023-04-24T11:32:41.328Z,8.23
2023-04-24T11:35:12.861Z,7.60
2023-04-24T11:37:44.135Z,10.20
2023-04-24T11:40:16.576Z,11.25
2023-04-24T11:42:48.395Z,8.55
2023-04-24T11:45:19.956Z,8.57
2023-04-24T11:47:52.301Z,7.97
2023-04-24T11:50:23.501Z,9.63
2023-04-24T11:52:54.114Z,7.15
2023-04-24T11:55:32.143Z,7.78
2023-04-24T11:58:03.647Z,8.60
2023-04-24T12:00:35.458Z,6.95
2023-04-24T12:03:13.044Z,7.88
2023-04-24T12:08:32.883Z,10.18
2023-04-24T12:11:04.477Z,9.43
2023-04-24T12:13:34.397Z,9.05
2023-04-24T12:16:07.971Z,8.85
2023-04-24T12:18:45.651Z,8.65
2023-04-24T12:21:27.634Z,8.70
2023-04-24T12:23:59.299Z,8.48
2023-04-24T12:26:28.845Z,10.13
2023-04-24T12:28:58.364Z,9.98
2023-04-24T12:31:30.660Z,7.47
2023-04-24T12:34:02.842Z,8.00
2023-04-24T12:36:32.435Z,8.35
2023-04-24T12:39:02.244Z,7.47
2023-04-24T12:41:34.682Z,7.85
2023-04-24T12:44:04.276Z,7.78
2023-04-24T12:46:33.868Z,7.03
2023-04-24T12:49:06.034Z,9.50
2023-04-24T12:51:35.709Z,8.38
2023-04-24T12:54:05.343Z,8.45
2023-04-24T12:56:34.965Z,7.88
2023-04-24T12:59:04.722Z,10.48
2023-04-24T13:01:34.369Z,8.93
2023-04-24T13:04:06.691Z,9.43
2023-04-24T13:06:38.650Z,8.68
2023-04-24T13:09:08.972Z,7.35
2023-04-24T13:11:38.572Z,7.50
2023-04-24T13:14:08.085Z,5.78
2023-04-24T13:16:38.228Z,12.27
2023-04-24T13:19:10.746Z,5.00
2023-04-24T13:21:40.311Z,4.45
2023-04-24T13:24:10.077Z,3.45
2023-04-24T13:26:39.570Z,4.13
2023-04-24T13:29:09.110Z,3.53
2023-04-24T13:31:38.925Z,5.75
2023-04-24T13:34:11.142Z,3.97
2023-04-24T13:36:40.757Z,5.03
2023-04-24T13:39:10.669Z,5.22
2023-04-24T13:41:40.797Z,4.07
2023-04-24T13:44:10.512Z,3.92
2023-04-24T13:46:40.312Z,5.18
2023-04-24T13:49:12.503Z,5.55
2023-04-24T13:51:42.521Z,3.95
2023-04-24T13:54:12.509Z,4.00
2023-04-24T13:56:43.100Z,3.67
2023-04-24T13:59:12.965Z,4.43
2023-04-24T14:01:42.693Z,5.10
2023-04-24T14:04:15.042Z,3.45
2023-04-24T14:06:44.706Z,3.70
2023-04-24T14:09:14.320Z,5.13
2023-04-24T14:11:44.381Z,4.35
2023-04-24T14:14:14.336Z,4.35
2023-04-24T14:16:43.954Z,3.38
2023-04-24T14:19:16.198Z,4.47
2023-04-24T14:21:45.809Z,4.70
2023-04-24T14:24:15.534Z,4.90
2023-04-24T14:26:45.122Z,5.25
2023-04-24T14:29:15.479Z,5.28
2023-04-24T14:31:46.061Z,7.43
2023-04-24T14:34:18.410Z,4.93
2023-04-24T14:36:48.043Z,5.15
2023-04-24T14:39:17.726Z,6.97
2023-04-24T14:41:47.339Z,7.05
2023-04-24T14:44:20.102Z,6.55
2023-04-24T14:46:49.880Z,5.15
2023-04-24T14:49:22.097Z,5.85
2023-04-24T14:51:51.723Z,8.68
2023-04-24T14:54:24.289Z,5.80
2023-04-24T14:56:54.078Z,8.95
2023-04-24T14:59:23.670Z,4.85
2023-04-24T15:02:01.975Z,4.68
2023-04-24T15:04:41.015Z,8.55
2023-04-24T15:09:40.319Z,7.53
2023-04-24T15:12:11.102Z,7.28
2023-04-24T15:14:42.016Z,7.05
2023-04-24T15:17:11.696Z,7.35
2023-04-24T15:19:43.954Z,7.35
2023-04-24T15:22:14.825Z,8.63
2023-04-24T15:24:44.392Z,8.07
2023-04-24T15:27:14.406Z,8.68
2023-04-24T15:29:44.091Z,8.95
2023-04-24T15:32:13.645Z,11.02
2023-04-24T15:34:45.926Z,8.15
2023-04-24T15:37:15.900Z,6.88
2023-04-24T15:39:48.528Z,5.85
2023-04-24T15:42:18.086Z,7.05
2023-04-24T15:44:47.593Z,6.10
2023-04-24T15:47:17.184Z,5.28
2023-04-24T15:49:49.385Z,7.63
2023-04-24T15:52:18.933Z,5.55
2023-04-24T15:54:48.469Z,6.00
2023-04-24T15:57:18.203Z,8.35
2023-04-24T15:59:48.611Z,7.00
2023-04-24T16:02:19.528Z,7.20
2023-04-24T16:04:54.292Z,6.55
2023-04-24T16:07:25.159Z,5.70
2023-04-24T16:09:54.767Z,7.50
2023-04-24T16:12:27.869Z,6.15
2023-04-24T16:14:58.096Z,7.13
2023-04-24T16:17:27.657Z,6.93
2023-04-24T16:19:59.826Z,9.38
2023-04-24T16:22:29.385Z,10.52
2023-04-24T16:24:59.036Z,15.25
2023-04-24T16:27:29.216Z,13.30
2023-04-24T16:29:58.919Z,9.20
2023-04-24T16:32:28.593Z,15.88
2023-04-24T16:35:00.876Z,15.45
2023-04-24T16:37:32.262Z,12.50
2023-04-24T16:40:01.842Z,8.55
2023-04-24T16:42:31.418Z,7.45
2023-04-24T16:45:00.960Z,7.38
2023-04-24T16:47:30.606Z,9.32
2023-04-24T16:50:02.910Z,11.45
2023-04-24T16:52:32.517Z,10.65
2023-04-24T16:55:02.135Z,9.55
2023-04-24T16:57:31.720Z,9.25
2023-04-24T17:00:01.300Z,10.27
2023-04-24T17:02:31.755Z,11.40
2023-04-24T17:05:04.022Z,8.65
2023-04-24T17:07:33.908Z,7.55
2023-04-24T17:10:03.577Z,9.52
2023-04-24T17:12:33.157Z,9.27
2023-04-24T17:15:02.738Z,8.40
2023-04-24T17:17:32.309Z,9.55
2023-04-24T17:20:15.005Z,7.90
2023-04-24T17:22:51.508Z,8.20
2023-04-24T17:25:21.580Z,8.07
2023-04-24T17:27:51.269Z,8.05
2023-04-24T17:30:21.056Z,7.65
2023-04-24T17:32:50.643Z,7.53
2023-04-24T17:35:22.943Z,8.07
2023-04-24T17:37:52.588Z,9.75
2023-04-24T17:40:22.208Z,9.00
2023-04-24T17:42:51.877Z,12.98
2023-04-24T17:45:21.438Z,12.50
2023-04-24T17:50:28.733Z,31.83
2023-04-24T17:52:58.315Z,22.80
2023-04-24T17:55:27.942Z,19.55
2023-04-24T17:57:57.654Z,12.65
2023-04-24T18:00:27.834Z,9.35
2023-04-24T18:03:01.280Z,9.25
2023-04-24T18:05:34.600Z,10.13
2023-04-24T18:10:39.547Z,12.43
2023-04-24T18:13:09.893Z,9.63
2023-04-24T18:15:42.224Z,10.10
2023-04-24T18:18:11.885Z,15.18
2023-04-24T18:20:44.087Z,10.27
2023-04-24T18:23:13.686Z,11.85
2023-04-24T18:25:43.486Z,13.25
2023-04-24T18:28:13.096Z,11.15
2023-04-24T18:30:42.649Z,12.15
2023-04-24T18:33:12.744Z,14.63
2023-04-24T18:35:44.881Z,14.15
2023-04-24T18:38:14.507Z,13.95
2023-04-24T18:40:44.178Z,14.32
2023-04-24T18:43:14.099Z,14.25
2023-04-24T18:45:43.736Z,14.95
2023-04-24T18:48:13.252Z,14.82
2023-04-24T18:50:45.516Z,14.27
2023-04-24T18:53:18.319Z,12.02
2023-04-24T18:55:47.956Z,12.77
2023-04-24T18:58:17.588Z,13.88
2023-04-24T19:00:47.268Z,11.98
2023-04-24T19:03:17.103Z,12.40
2023-04-24T19:05:49.410Z,11.77
2023-04-24T19:08:18.934Z,12.30
2023-04-24T19:10:48.512Z,12.07
2023-04-24T19:13:18.036Z,9.45
2023-04-24T19:15:47.639Z,13.65
2023-04-24T19:18:17.296Z,12.48
2023-04-24T19:20:49.509Z,13.50
2023-04-24T19:23:19.057Z,8.45
2023-04-24T19:25:48.692Z,11.93
2023-04-24T19:28:18.201Z,11.10
2023-04-24T19:30:48.913Z,13.15
2023-04-24T19:33:18.470Z,12.13
2023-04-24T19:35:51.200Z,12.73
2023-04-24T19:38:20.892Z,13.60
2023-04-24T19:40:50.525Z,15.82
2023-04-24T19:43:20.069Z,13.90
2023-04-24T19:45:51.071Z,16.80
2023-04-24T19:48:20.815Z,21.73
2023-04-24T19:50:53.066Z,17.38
2023-04-24T19:53:22.611Z,20.50
2023-04-24T19:55:52.160Z,23.67
2023-04-24T19:58:21.716Z,18.73
2023-04-24T20:00:51.511Z,17.55
2023-04-24T20:03:32.229Z,17.98
2023-04-24T20:06:06.065Z,16.08
2023-04-24T20:08:39.017Z,16.88
2023-04-24T20:11:08.771Z,17.67
2023-04-24T20:13:38.312Z,14.65
2023-04-24T20:16:10.439Z,15.27
2023-04-24T20:18:43.314Z,18.83
2023-04-24T20:21:16.119Z,15.10
2023-04-24T20:23:45.641Z,17.98
2023-04-24T20:26:15.220Z,15.85
2023-04-24T20:28:44.786Z,15.75
2023-04-24T20:31:14.529Z,13.50
2023-04-24T20:33:45.727Z,15.68
2023-04-24T20:36:17.923Z,12.50
2023-04-24T20:38:47.998Z,14.68
2023-04-24T20:41:17.784Z,16.65
2023-04-24T20:43:47.459Z,14.75
2023-04-24T20:46:19.517Z,16.90
2023-04-24T20:48:49.369Z,26.88
2023-04-24T20:51:23.266Z,23.50
2023-04-24T20:53:52.987Z,24.45
2023-04-24T20:56:24.994Z,30.90
2023-04-24T20:58:56.992Z,34.13
2023-04-24T21:01:27.154Z,25.33
2023-04-24T21:03:56.838Z,17.38
2023-04-24T21:06:29.309Z,17.65
2023-04-24T21:08:58.920Z,20.10
2023-04-24T21:11:30.498Z,18.42
2023-04-24T21:14:00.099Z,20.17
2023-04-24T21:16:29.856Z,19.17
2023-04-24T21:18:59.696Z,18.73
2023-04-24T21:21:32.272Z,13.57
2023-04-24T21:24:04.334Z,15.48
2023-04-24T21:26:34.030Z,11.68
2023-04-24T21:29:03.868Z,14.85
2023-04-24T21:31:34.241Z,14.00
2023-04-24T21:34:03.834Z,11.27
2023-04-24T21:36:36.031Z,12.52
2023-04-24T21:39:05.809Z,12.15
2023-04-24T21:41:35.453Z,10.85
2023-04-24T21:44:05.225Z,11.80
2023-04-24T21:46:35.026Z,11.45
2023-04-24T21:49:04.751Z,13.73
2023-04-24T21:51:37.000Z,11.13
2023-04-24T21:54:06.883Z,11.43
2023-04-24T21:56:36.596Z,12.60
2023-04-24T21:59:06.326Z,9.23
2023-04-24T22:01:36.364Z,9.40
2023-04-24T22:04:06.927Z,10.48
2023-04-24T22:06:39.273Z,10.88
2023-04-24T22:09:08.864Z,12.57
2023-04-24T22:11:39.572Z,8.60
2023-04-24T22:14:09.166Z,12.20
2023-04-24T22:16:41.717Z,12.65
2023-04-24T22:19:11.559Z,10.35
2023-04-24T22:21:44.490Z,11.27
2023-04-24T22:24:14.229Z,9.15
2023-04-24T22:26:44.524Z,8.02
2023-04-24T22:29:14.208Z,8.50
2023-04-24T22:31:43.963Z,8.93
2023-04-24T22:34:13.865Z,9.77
2023-04-24T22:36:46.203Z,9.13
2023-04-24T22:39:17.696Z,8.23
2023-04-24T22:41:47.403Z,7.22
2023-04-24T22:44:17.036Z,8.20
2023-04-24T22:46:49.671Z,8.15
2023-04-24T22:49:20.054Z,8.63
2023-04-24T22:51:53.439Z,6.03
2023-04-24T22:54:23.006Z,8.60
2023-04-24T22:56:53.102Z,9.45
2023-04-24T22:59:23.597Z,5.82
2023-04-24T23:01:53.186Z,6.85
2023-04-24T23:04:22.945Z,6.10
2023-04-24T23:06:55.423Z,6.22
2023-04-24T23:09:24.965Z,6.68
2023-04-24T23:11:54.599Z,7.82
2023-04-24T23:14:25.194Z,5.45
2023-04-24T23:16:54.942Z,5.85
2023-04-24T23:19:24.504Z,6.03
2023-04-24T23:21:56.720Z,5.47
2023-04-24T23:24:26.893Z,6.03
2023-04-24T23:26:56.453Z,6.20
2023-04-24T23:29:26.423Z,6.40
2023-04-24T23:31:56.669Z,5.75
2023-04-24T23:34:26.405Z,7.15
2023-04-24T23:36:58.584Z,7.60
2023-04-24T23:39:28.154Z,7.57
2023-04-24T23:41:58.600Z,6.18
2023-04-24T23:44:28.787Z,5.60
2023-04-24T23:46:58.515Z,4.95
2023-04-24T23:49:28.048Z,5.35
2023-04-24T23:52:00.283Z,6.93
2023-04-24T23:54:29.851Z,5.88
2023-04-24T23:56:59.460Z,13.88
2023-04-24T23:59:29.303Z,5.15
